Time;durP1;ratioP1;P1;durP2;ratioP2;P2;SDS_P1;SDS_P2;PMS_P1;PMS_P2;Temp;Humidity;BMP_temperature;BMP_pressure;BME280_temperature;BME280_humidity;BME280_pressure;Samples;Min_cycle;Max_cycle;Signal;HPM_P1;HPM_P2
2023/08/09 00:01:34;;;;;;;5.72;3.92;;;;;;;-148.88;100.00;-17125.47;5033244;28;20419;-76
2023/08/09 00:04:00;;;;;;;6.75;4.03;;;;;;;-148.88;100.00;-17125.47;5032900;28;20393;-75
2023/08/09 00:06:25;;;;;;;6.22;3.92;;;;;;;-148.88;100.00;-17125.47;5032886;28;20028;-75
2023/08/09 00:08:51;;;;;;;8.32;5.07;;;;;;;-148.88;100.00;-17125.47;5032756;28;20033;-75
2023/08/09 00:11:16;;;;;;;7.32;5.38;;;;;;;-148.88;100.00;-17125.47;5032863;28;20021;-75
2023/08/09 00:13:42;;;;;;;8.25;4.80;;;;;;;-148.88;100.00;-17125.47;5031591;28;20031;-75
2023/08/09 00:16:07;;;;;;;7.65;4.53;;;;;;;-148.88;100.00;-17125.47;5032809;28;20021;-75
2023/08/09 00:18:33;;;;;;;6.53;4.75;;;;;;;-148.88;100.00;-17125.47;5033030;28;20017;-75
2023/08/09 00:21:00;;;;;;;7.30;5.18;;;;;;;-148.88;100.00;-17125.47;5032760;28;20029;-75
2023/08/09 00:23:26;;;;;;;7.05;4.78;;;;;;;-148.88;100.00;-17125.47;5031398;28;20026;-75
2023/08/09 00:25:51;;;;;;;6.93;4.47;;;;;;;-148.88;100.00;-17125.47;5032668;28;20044;-75
2023/08/09 00:28:17;;;;;;;6.35;4.63;;;;;;;-148.88;100.00;-17125.47;5032418;28;20373;-75
2023/08/09 00:30:43;;;;;;;6.78;4.80;;;;;;;-148.88;100.00;-17125.47;5032684;28;20542;-75
2023/08/09 00:33:09;;;;;;;8.07;5.13;;;;;;;-148.88;100.00;-17125.47;5032663;28;20029;-75
2023/08/09 00:35:34;;;;;;;8.10;5.15;;;;;;;-148.88;100.00;-17125.47;5032559;28;20096;-75
2023/08/09 00:38:00;;;;;;;6.93;5.03;;;;;;;-148.88;100.00;-17125.47;5032536;28;20075;-75
2023/08/09 00:40:26;;;;;;;6.18;4.72;;;;;;;-148.88;100.00;-17125.47;5032580;28;20029;-75
2023/08/09 00:42:51;;;;;;;6.05;5.00;;;;;;;-148.88;100.00;-17125.47;5032573;28;20056;-75
2023/08/09 00:45:17;;;;;;;7.50;5.03;;;;;;;-148.88;100.00;-17125.47;5032536;28;20105;-75
2023/08/09 00:47:43;;;;;;;7.30;4.88;;;;;;;-148.88;100.00;-17125.47;5032386;28;20527;-75
2023/08/09 00:50:09;;;;;;;8.02;4.85;;;;;;;-148.88;100.00;-17125.47;5032442;28;20018;-75
2023/08/09 00:52:35;;;;;;;9.45;5.25;;;;;;;-148.88;100.00;-17125.47;5031098;28;20078;-75
2023/08/09 00:55:02;;;;;;;8.00;5.65;;;;;;;-148.88;100.00;-17125.47;5031138;28;20175;-75
2023/08/09 00:57:27;;;;;;;10.75;5.93;;;;;;;-148.88;100.00;-17125.47;5031095;28;20387;-75
2023/08/09 00:59:53;;;;;;;7.78;5.65;;;;;;;-148.88;100.00;-17125.47;5032444;28;20079;-75
2023/08/09 01:02:18;;;;;;;6.70;5.43;;;;;;;-148.88;100.00;-17125.47;5032400;28;20021;-75
2023/08/09 01:04:44;;;;;;;8.40;6.28;;;;;;;-148.88;100.00;-17125.47;5032336;28;20028;-75
2023/08/09 01:07:16;;;;;;;8.43;5.40;;;;;;;-148.88;100.00;-17125.47;5032260;28;20407;-75
2023/08/09 01:09:49;;;;;;;8.93;5.72;;;;;;;-148.88;100.00;-17125.47;5032520;28;20017;-75
2023/08/09 01:12:19;;;;;;;9.25;5.75;;;;;;;-148.88;100.00;-17125.47;5032592;28;20031;-75
2023/08/09 01:14:50;;;;;;;8.32;5.93;;;;;;;-148.88;100.00;-17125.47;5032500;28;20026;-75
2023/08/09 01:17:15;;;;;;;8.55;6.18;;;;;;;-148.88;100.00;-17125.47;5030901;28;20029;-75
2023/08/09 01:19:48;;;;;;;9.40;6.25;;;;;;;-148.88;100.00;-17125.47;5032228;28;20029;-75
2023/08/09 01:22:21;;;;;;;8.15;6.00;;;;;;;-148.88;100.00;-17125.47;5033712;28;20079;-75
2023/08/09 01:24:48;;;;;;;9.27;6.72;;;;;;;-148.88;100.00;-17125.47;5035782;28;20021;-75
2023/08/09 01:27:13;;;;;;;8.90;6.45;;;;;;;-148.88;100.00;-17125.47;5035639;28;20025;-75
2023/08/09 01:29:39;;;;;;;13.27;6.80;;;;;;;-148.88;100.00;-17125.47;5035358;28;20039;-75
2023/08/09 01:32:05;;;;;;;10.48;6.53;;;;;;;-148.88;100.00;-17125.47;5035655;28;20113;-75
2023/08/09 01:34:31;;;;;;;9.45;6.60;;;;;;;-148.88;100.00;-17125.47;5035642;28;20028;-74
2023/08/09 01:37:03;;;;;;;10.80;7.00;;;;;;;-148.88;100.00;-17125.47;5034220;28;20025;-74
2023/08/09 01:39:33;;;;;;;10.00;6.53;;;;;;;-148.88;100.00;-17125.47;5035484;28;20021;-75
2023/08/09 01:41:59;;;;;;;10.80;7.22;;;;;;;-148.88;100.00;-17125.47;5035452;28;20032;-75
2023/08/09 01:44:26;;;;;;;9.07;6.57;;;;;;;-148.88;100.00;-17125.47;5035431;28;20476;-75
2023/08/09 01:46:51;;;;;;;8.63;5.95;;;;;;;-148.88;100.00;-17125.47;5035285;28;20075;-74
2023/08/09 01:49:21;;;;;;;8.82;6.40;;;;;;;-148.88;100.00;-17125.47;5035118;28;20017;-74
2023/08/09 01:51:47;;;;;;;7.45;6.05;;;;;;;-148.88;100.00;-17125.47;5035286;28;20464;-75
2023/08/09 01:54:13;;;;;;;10.88;5.93;;;;;;;-148.88;100.00;-17125.47;5035208;28;20036;-75
2023/08/09 01:56:39;;;;;;;7.88;5.63;;;;;;;-148.88;100.00;-17125.47;5035047;28;20037;-75
2023/08/09 01:59:05;;;;;;;8.32;6.05;;;;;;;-148.88;100.00;-17125.47;5035134;28;20492;-75
2023/08/09 02:01:31;;;;;;;8.02;5.82;;;;;;;-148.88;100.00;-17125.47;5035071;28;20087;-75
2023/08/09 02:03:57;;;;;;;8.93;6.07;;;;;;;-148.88;100.00;-17125.47;5035075;28;20029;-75
2023/08/09 02:06:22;;;;;;;12.07;6.82;;;;;;;-148.88;100.00;-17125.47;5034948;28;20377;-75
2023/08/09 02:08:48;;;;;;;8.20;6.55;;;;;;;-148.88;100.00;-17125.47;5034764;28;20025;-75
2023/08/09 02:11:13;;;;;;;8.95;7.13;;;;;;;-148.88;100.00;-17125.47;5034932;28;20104;-75
2023/08/09 02:13:39;;;;;;;11.57;7.10;;;;;;;-148.88;100.00;-17125.47;5034889;28;20018;-75
2023/08/09 02:16:05;;;;;;;11.98;7.97;;;;;;;-148.88;100.00;-17125.47;5034816;28;20113;-74
2023/08/09 02:18:32;;;;;;;10.35;8.43;;;;;;;-148.88;100.00;-17125.47;5034681;28;20021;-75
2023/08/09 02:20:59;;;;;;;11.55;8.45;;;;;;;-148.88;100.00;-17125.47;5034675;28;20365;-75
2023/08/09 02:23:25;;;;;;;16.23;9.38;;;;;;;-148.88;100.00;-17125.47;5034634;28;20017;-74
2023/08/09 02:25:53;;;;;;;13.73;9.18;;;;;;;-148.88;100.00;-17125.47;5034589;28;20024;-75
2023/08/09 02:28:18;;;;;;;13.07;9.43;;;;;;;-148.88;100.00;-17125.47;5034249;28;20028;-74
2023/08/09 02:30:45;;;;;;;15.48;9.85;;;;;;;-148.88;100.00;-17125.47;5034828;28;20013;-75
2023/08/09 02:33:11;;;;;;;13.30;10.00;;;;;;;-148.88;100.00;-17125.47;5034401;28;20087;-75
2023/08/09 02:35:52;;;;;;;14.88;10.65;;;;;;;-148.88;100.00;-17125.47;5034403;28;20374;-75
2023/08/09 02:38:17;;;;;;;14.90;11.77;;;;;;;-148.88;100.00;-17125.47;5034368;28;20032;-75
2023/08/09 02:40:42;;;;;;;15.30;11.80;;;;;;;-148.88;100.00;-17125.47;5033003;28;20025;-75
2023/08/09 02:43:08;;;;;;;16.40;12.30;;;;;;;-148.88;100.00;-17125.47;5034239;28;20064;-75
2023/08/09 02:45:33;;;;;;;16.40;11.43;;;;;;;-148.88;100.00;-17125.47;5032992;28;20017;-75
2023/08/09 02:47:58;;;;;;;15.70;12.25;;;;;;;-148.88;100.00;-17125.47;5034117;28;20100;-75
2023/08/09 02:50:24;;;;;;;18.00;12.13;;;;;;;-148.88;100.00;-17125.47;5059366;22;20053;-86
2023/08/09 02:52:50;;;;;;;17.77;13.10;;;;;;;-148.88;100.00;-17125.47;5053719;28;20537;-86
2023/08/09 02:55:17;;;;;;;15.35;12.18;;;;;;;-148.88;100.00;-17125.47;5053094;28;20104;-86
2023/08/09 02:57:42;;;;;;;15.85;12.15;;;;;;;-148.88;100.00;-17125.47;5052900;28;20029;-86
2023/08/09 03:00:08;;;;;;;14.57;11.00;;;;;;;-148.88;100.00;-17125.47;5052823;28;20017;-86
2023/08/09 03:02:34;;;;;;;15.23;10.60;;;;;;;-148.88;100.00;-17125.47;5054353;28;20049;-87
2023/08/09 03:05:00;;;;;;;15.48;11.60;;;;;;;-148.88;100.00;-17125.47;5050915;23;20054;-74
2023/08/09 03:07:25;;;;;;;15.85;11.00;;;;;;;-148.88;100.00;-17125.47;5032468;28;20021;-74
2023/08/09 03:09:51;;;;;;;17.00;11.32;;;;;;;-148.88;100.00;-17125.47;5033682;28;20113;-74
2023/08/09 03:12:16;;;;;;;15.15;11.13;;;;;;;-148.88;100.00;-17125.47;5034022;28;20032;-74
2023/08/09 03:14:42;;;;;;;14.88;10.60;;;;;;;-148.88;100.00;-17125.47;5033641;28;20025;-74
2023/08/09 03:17:07;;;;;;;14.25;11.25;;;;;;;-148.88;100.00;-17125.47;5033578;28;20025;-74
2023/08/09 03:19:32;;;;;;;14.23;11.30;;;;;;;-148.88;100.00;-17125.47;5033532;28;20021;-74
2023/08/09 03:21:58;;;;;;;14.45;11.48;;;;;;;-148.88;100.00;-17125.47;5033521;28;20018;-74
2023/08/09 03:24:24;;;;;;;13.25;10.57;;;;;;;-148.88;100.00;-17125.47;5033735;28;20076;-74
2023/08/09 03:26:49;;;;;;;14.30;10.48;;;;;;;-148.88;100.00;-17125.47;5033762;28;20064;-74
2023/08/09 03:29:14;;;;;;;16.15;11.57;;;;;;;-148.88;100.00;-17125.47;5033319;28;20104;-74
2023/08/09 03:31:41;;;;;;;15.27;11.48;;;;;;;-148.88;100.00;-17125.47;5033411;28;20033;-73
2023/08/09 03:34:07;;;;;;;17.98;11.75;;;;;;;-148.88;100.00;-17125.47;5033376;28;20061;-74
2023/08/09 03:36:32;;;;;;;15.68;11.40;;;;;;;-148.88;100.00;-17125.47;5033155;28;20102;-74
2023/08/09 03:38:57;;;;;;;15.93;11.75;;;;;;;-148.88;100.00;-17125.47;5033332;28;20018;-74
2023/08/09 03:41:25;;;;;;;16.60;11.75;;;;;;;-148.88;100.00;-17125.47;5033182;28;20025;-74
2023/08/09 03:43:50;;;;;;;16.40;11.52;;;;;;;-148.88;100.00;-17125.47;5032065;28;20037;-74
2023/08/09 03:46:15;;;;;;;15.02;12.57;;;;;;;-148.88;100.00;-17125.47;5033279;28;20400;-74
2023/08/09 03:48:41;;;;;;;18.08;13.68;;;;;;;-148.88;100.00;-17125.47;5033140;28;20030;-74
2023/08/09 03:51:06;;;;;;;16.52;11.90;;;;;;;-148.88;100.00;-17125.47;5033422;28;20121;-73
2023/08/09 03:53:31;;;;;;;18.42;13.50;;;;;;;-148.88;100.00;-17125.47;5033417;28;20064;-74
2023/08/09 03:55:57;;;;;;;15.73;12.88;;;;;;;-148.88;100.00;-17125.47;5033264;28;20036;-74
2023/08/09 03:58:22;;;;;;;17.77;12.25;;;;;;;-148.88;100.00;-17125.47;5032925;28;20025;-74
2023/08/09 04:00:48;;;;;;;15.15;12.48;;;;;;;-148.88;100.00;-17125.47;5032908;28;20468;-74
2023/08/09 04:03:13;;;;;;;16.80;12.63;;;;;;;-148.88;100.00;-17125.47;5033223;28;20018;-74
2023/08/09 04:05:39;;;;;;;15.00;11.77;;;;;;;-148.88;100.00;-17125.47;5032777;28;20029;-74
2023/08/09 04:08:06;;;;;;;19.23;13.70;;;;;;;-148.88;100.00;-17125.47;5031535;28;20021;-74
2023/08/09 04:10:32;;;;;;;17.67;12.80;;;;;;;-148.88;100.00;-17125.47;5032753;28;20122;-74
2023/08/09 04:12:58;;;;;;;14.13;11.75;;;;;;;-148.88;100.00;-17125.47;5033417;28;20110;-74
2023/08/09 04:15:23;;;;;;;17.13;13.00;;;;;;;-148.88;100.00;-17125.47;5032785;28;20037;-74
2023/08/09 04:17:49;;;;;;;16.70;12.85;;;;;;;-148.88;100.00;-17125.47;5032723;28;20484;-74
2023/08/09 04:20:16;;;;;;;18.08;13.15;;;;;;;-148.88;100.00;-17125.47;5032741;28;20025;-74
2023/08/09 04:22:41;;;;;;;17.40;12.65;;;;;;;-148.88;100.00;-17125.47;5032962;28;20064;-74
2023/08/09 04:25:10;;;;;;;16.75;12.73;;;;;;;-148.88;100.00;-17125.47;5032819;28;20049;-74
2023/08/09 04:27:36;;;;;;;16.10;12.05;;;;;;;-148.88;100.00;-17125.47;5032595;28;20036;-74
2023/08/09 04:30:03;;;;;;;15.10;10.88;;;;;;;-148.88;100.00;-17125.47;5031288;28;20082;-74
2023/08/09 04:32:29;;;;;;;15.82;11.35;;;;;;;-148.88;100.00;-17125.47;5031373;28;20480;-74
2023/08/09 04:34:54;;;;;;;12.85;10.73;;;;;;;-148.88;100.00;-17125.47;5032657;28;20117;-74
2023/08/09 04:37:20;;;;;;;14.73;11.38;;;;;;;-148.88;100.00;-17125.47;5032571;28;20025;-74
2023/08/09 04:39:45;;;;;;;15.93;11.30;;;;;;;-148.88;100.00;-17125.47;5032969;28;20156;-74
2023/08/09 04:42:10;;;;;;;15.30;11.15;;;;;;;-148.88;100.00;-17125.47;5031432;28;20399;-74
2023/08/09 04:44:36;;;;;;;14.07;10.50;;;;;;;-148.88;100.00;-17125.47;5032593;28;20384;-74
2023/08/09 04:47:03;;;;;;;13.98;10.73;;;;;;;-148.88;100.00;-17125.47;5032405;28;20405;-75
2023/08/09 04:49:28;;;;;;;13.70;10.50;;;;;;;-148.88;100.00;-17125.47;5031472;28;20029;-75
2023/08/09 04:51:54;;;;;;;14.30;10.73;;;;;;;-148.88;100.00;-17125.47;5032804;28;20018;-75
2023/08/09 04:54:20;;;;;;;14.13;10.63;;;;;;;-148.88;100.00;-17125.47;5031262;28;20116;-74
2023/08/09 04:56:45;;;;;;;12.88;10.55;;;;;;;-148.88;100.00;-17125.47;5034627;28;20028;-75
2023/08/09 04:59:11;;;;;;;14.50;11.05;;;;;;;-148.88;100.00;-17125.47;5036319;28;20014;-75
2023/08/09 05:01:36;;;;;;;14.02;10.70;;;;;;;-148.88;100.00;-17125.47;5036232;28;20022;-74
2023/08/09 05:04:02;;;;;;;13.65;10.88;;;;;;;-148.88;100.00;-17125.47;5036420;28;20063;-74
2023/08/09 05:06:27;;;;;;;14.32;11.02;;;;;;;-148.88;100.00;-17125.47;5036111;28;20031;-74
2023/08/09 05:08:53;;;;;;;15.48;11.13;;;;;;;-148.88;100.00;-17125.47;5035918;28;20021;-75
2023/08/09 05:11:18;;;;;;;14.80;11.65;;;;;;;-148.88;100.00;-17125.47;5036284;28;20030;-74
2023/08/09 05:13:44;;;;;;;15.93;11.68;;;;;;;-148.88;100.00;-17125.47;5035881;28;20029;-74
2023/08/09 05:16:10;;;;;;;15.52;11.90;;;;;;;-148.88;100.00;-17125.47;5034656;28;20614;-74
2023/08/09 05:18:35;;;;;;;17.02;13.38;;;;;;;-148.88;100.00;-17125.47;5035839;28;20018;-75
2023/08/09 05:21:01;;;;;;;20.27;13.10;;;;;;;-148.88;100.00;-17125.47;5035829;28;20108;-74
2023/08/09 05:23:26;;;;;;;19.33;14.50;;;;;;;-148.88;100.00;-17125.47;5036317;28;20025;-74
2023/08/09 05:25:51;;;;;;;19.30;12.77;;;;;;;-148.88;100.00;-17125.47;5035846;28;20025;-75
2023/08/09 05:28:17;;;;;;;17.13;13.02;;;;;;;-148.88;100.00;-17125.47;5034251;28;20017;-75
2023/08/09 05:30:42;;;;;;;18.05;13.02;;;;;;;-148.88;100.00;-17125.47;5035934;28;20068;-75
2023/08/09 05:33:07;;;;;;;17.45;13.40;;;;;;;-148.88;100.00;-17125.47;5035758;28;20025;-75
2023/08/09 05:35:33;;;;;;;16.23;12.75;;;;;;;-148.88;100.00;-17125.47;5034360;28;20053;-75
2023/08/09 05:37:58;;;;;;;16.42;13.13;;;;;;;-148.88;100.00;-17125.47;5034283;28;20057;-75
2023/08/09 05:40:23;;;;;;;17.92;13.82;;;;;;;-148.88;100.00;-17125.47;5035528;28;20100;-75
2023/08/09 05:42:49;;;;;;;19.38;15.15;;;;;;;-148.88;100.00;-17125.47;5035712;28;20043;-75
2023/08/09 05:45:14;;;;;;;20.30;14.73;;;;;;;-148.88;100.00;-17125.47;5035741;28;20061;-75
2023/08/09 05:47:40;;;;;;;18.02;13.75;;;;;;;-148.88;100.00;-17125.47;5034027;28;20029;-75
2023/08/09 05:50:06;;;;;;;17.95;13.63;;;;;;;-148.88;100.00;-17125.47;5035225;28;20025;-75
2023/08/09 05:52:32;;;;;;;19.48;12.95;;;;;;;-148.88;100.00;-17125.47;5034260;28;20495;-74
2023/08/09 05:54:57;;;;;;;21.20;13.25;;;;;;;-148.88;100.00;-17125.47;5035272;28;20508;-75
2023/08/09 05:57:22;;;;;;;19.20;13.35;;;;;;;-148.88;100.00;-17125.47;5035311;28;20021;-75
2023/08/09 05:59:48;;;;;;;16.92;13.85;;;;;;;-148.88;100.00;-17125.47;5033807;28;20013;-75
2023/08/09 06:02:13;;;;;;;17.77;12.95;;;;;;;-148.88;100.00;-17125.47;5035136;28;20017;-75
2023/08/09 06:04:38;;;;;;;18.88;13.18;;;;;;;-148.88;100.00;-17125.47;5035172;28;20037;-75
2023/08/09 06:07:04;;;;;;;16.67;13.73;;;;;;;-148.88;100.00;-17125.47;5034514;28;20164;-75
2023/08/09 06:09:30;;;;;;;17.67;12.45;;;;;;;-148.88;100.00;-17125.47;5035115;28;20061;-75
2023/08/09 06:11:55;;;;;;;18.50;13.05;;;;;;;-148.88;100.00;-17125.47;5033605;28;20114;-75
2023/08/09 06:14:21;;;;;;;16.33;13.13;;;;;;;-148.88;100.00;-17125.47;5034896;28;20021;-75
2023/08/09 06:16:48;;;;;;;16.90;13.40;;;;;;;-148.88;100.00;-17125.47;5034760;28;20480;-75
2023/08/09 06:19:14;;;;;;;16.83;12.93;;;;;;;-148.88;100.00;-17125.47;5034732;28;20018;-75
2023/08/09 06:21:40;;;;;;;17.23;12.73;;;;;;;-148.88;100.00;-17125.47;5033449;28;20021;-75
2023/08/09 06:24:06;;;;;;;15.52;11.60;;;;;;;-148.88;100.00;-17125.47;5034652;28;20029;-75
2023/08/09 06:26:32;;;;;;;17.90;12.27;;;;;;;-148.88;100.00;-17125.47;5034513;28;20030;-76
2023/08/09 06:28:58;;;;;;;15.70;12.50;;;;;;;-148.88;100.00;-17125.47;5034746;28;20034;-75
2023/08/09 06:31:24;;;;;;;17.02;11.38;;;;;;;-148.88;100.00;-17125.47;5033331;28;20025;-75
2023/08/09 06:33:49;;;;;;;16.00;11.48;;;;;;;-148.88;100.00;-17125.47;5034509;28;20022;-75
2023/08/09 06:36:14;;;;;;;12.68;10.35;;;;;;;-148.88;100.00;-17125.47;5034362;28;20472;-75
2023/08/09 06:38:40;;;;;;;13.48;10.75;;;;;;;-148.88;100.00;-17125.47;5034451;28;20021;-75
2023/08/09 06:41:05;;;;;;;14.30;10.30;;;;;;;-148.88;100.00;-17125.47;5034548;28;20475;-75
2023/08/09 06:43:30;;;;;;;15.02;10.45;;;;;;;-148.88;100.00;-17125.47;5034331;28;20420;-75
2023/08/09 06:46:02;;;;;;;13.55;10.65;;;;;;;-148.88;100.00;-17125.47;5032976;28;20030;-75
2023/08/09 06:48:29;;;;;;;12.82;9.80;;;;;;;-148.88;100.00;-17125.47;5034040;28;20025;-75
2023/08/09 06:50:59;;;;;;;12.48;8.80;;;;;;;-148.88;100.00;-17125.47;5032820;28;20025;-75
2023/08/09 06:53:25;;;;;;;11.48;8.10;;;;;;;-148.88;100.00;-17125.47;5032781;28;20037;-75
2023/08/09 06:55:51;;;;;;;12.02;8.45;;;;;;;-148.88;100.00;-17125.47;5034280;28;20199;-75
2023/08/09 06:58:16;;;;;;;12.40;8.82;;;;;;;-148.88;100.00;-17125.47;5033915;28;20021;-75
2023/08/09 07:00:41;;;;;;;12.10;8.60;;;;;;;-148.88;100.00;-17125.47;5033983;28;20044;-75
2023/08/09 07:03:07;;;;;;;10.07;7.60;;;;;;;-148.88;100.00;-17125.47;5034010;28;20033;-76
2023/08/09 07:05:33;;;;;;;11.05;7.25;;;;;;;-148.88;100.00;-17125.47;5033797;28;20033;-75
2023/08/09 07:07:58;;;;;;;10.07;7.13;;;;;;;-148.88;100.00;-17125.47;5034303;28;20380;-76
2023/08/09 07:10:27;;;;;;;9.75;7.05;;;;;;;-148.88;100.00;-17125.47;5033708;28;20022;-76
2023/08/09 07:12:52;;;;;;;8.15;5.93;;;;;;;-148.88;100.00;-17125.47;5033726;28;20064;-76
2023/08/09 07:15:17;;;;;;;9.90;6.80;;;;;;;-148.88;100.00;-17125.47;5033664;28;20053;-76
2023/08/09 07:17:43;;;;;;;6.97;6.07;;;;;;;-148.88;100.00;-17125.47;5032174;28;20033;-77
2023/08/09 07:20:12;;;;;;;10.57;6.90;;;;;;;-148.88;100.00;-17125.47;5032851;28;20033;-75
2023/08/09 07:22:41;;;;;;;11.23;7.05;;;;;;;-148.88;100.00;-17125.47;5033453;28;20022;-76
2023/08/09 07:25:08;;;;;;;8.23;6.22;;;;;;;-148.88;100.00;-17125.47;5033807;28;20420;-75
2023/08/09 07:27:34;;;;;;;9.38;4.32;;;;;;;-148.88;100.00;-17125.47;5033437;28;20436;-75
2023/08/09 07:30:00;;;;;;;6.03;4.28;;;;;;;-148.88;100.00;-17125.47;5033330;28;20025;-75
2023/08/09 07:32:26;;;;;;;8.93;4.82;;;;;;;-148.88;100.00;-17125.47;5033629;28;20057;-75
2023/08/09 07:34:51;;;;;;;5.60;4.07;;;;;;;-148.88;100.00;-17125.47;5033676;28;20064;-75
2023/08/09 07:37:16;;;;;;;5.72;3.75;;;;;;;-148.88;100.00;-17125.47;5033507;28;20072;-75
2023/08/09 07:39:42;;;;;;;6.20;3.60;;;;;;;-148.88;100.00;-17125.47;5033830;28;20105;-75
2023/08/09 07:42:07;;;;;;;6.05;3.72;;;;;;;-148.88;100.00;-17125.47;5033541;28;20484;-75
2023/08/09 07:44:32;;;;;;;6.18;3.70;;;;;;;-148.88;100.00;-17125.47;5033249;28;20029;-75
2023/08/09 07:46:58;;;;;;;5.78;4.03;;;;;;;-148.88;100.00;-17125.47;5030914;28;20437;-76
2023/08/09 07:49:23;;;;;;;5.63;3.45;;;;;;;-148.88;100.00;-17125.47;5032962;28;20032;-75
2023/08/09 07:51:48;;;;;;;6.07;3.80;;;;;;;-148.88;100.00;-17125.47;5033013;28;20022;-75
2023/08/09 07:54:14;;;;;;;5.30;3.15;;;;;;;-148.88;100.00;-17125.47;5032948;28;20021;-76
2023/08/09 07:56:39;;;;;;;5.22;2.97;;;;;;;-148.88;100.00;-17125.47;5032862;28;20022;-75
2023/08/09 07:59:04;;;;;;;6.07;3.63;;;;;;;-148.88;100.00;-17125.47;5031549;28;20028;-75
2023/08/09 08:01:30;;;;;;;3.72;2.97;;;;;;;-148.88;100.00;-17125.47;5032769;28;20053;-75
2023/08/09 08:03:55;;;;;;;7.55;3.67;;;;;;;-148.88;100.00;-17125.47;5032751;28;20431;-75
2023/08/09 08:06:21;;;;;;;4.15;3.28;;;;;;;-148.88;100.00;-17125.47;5032965;28;20037;-75
2023/08/09 08:08:46;;;;;;;5.38;3.22;;;;;;;-148.88;100.00;-17125.47;5031383;28;20029;-75
2023/08/09 08:11:11;;;;;;;5.18;3.08;;;;;;;-148.88;100.00;-17125.47;5032804;28;20140;-75
2023/08/09 08:13:37;;;;;;;3.70;2.85;;;;;;;-148.88;100.00;-17125.47;5032725;28;20033;-75
2023/08/09 08:16:04;;;;;;;4.50;2.70;;;;;;;-148.88;100.00;-17125.47;5012264;28;20030;-75
2023/08/09 08:18:30;;;;;;;6.15;2.80;;;;;;;-148.88;100.00;-17125.47;5011640;28;20041;-75
2023/08/09 08:20:56;;;;;;;5.00;2.95;;;;;;;-148.88;100.00;-17125.47;5012965;28;20068;-76
2023/08/09 08:23:21;;;;;;;4.30;2.70;;;;;;;-148.88;100.00;-17125.47;5012860;28;20057;-75
2023/08/09 08:25:47;;;;;;;4.88;2.97;;;;;;;-148.88;100.00;-17125.47;5013001;28;20037;-75
2023/08/09 08:28:12;;;;;;;4.38;2.70;;;;;;;-148.88;100.00;-17125.47;5012367;28;20555;-75
2023/08/09 08:30:38;;;;;;;6.60;2.65;;;;;;;-148.88;100.00;-17125.47;5013264;28;20026;-75
2023/08/09 08:33:04;;;;;;;7.38;2.63;;;;;;;-148.88;100.00;-17125.47;5016910;28;20018;-76
2023/08/09 08:35:33;;;;;;;5.65;2.50;;;;;;;-148.88;100.00;-17125.47;5017028;28;20068;-75
2023/08/09 08:37:59;;;;;;;4.95;2.30;;;;;;;-148.88;100.00;-17125.47;5016771;28;20068;-75
2023/08/09 08:40:25;;;;;;;4.70;2.00;;;;;;;-148.88;100.00;-17125.47;5016793;28;20029;-76
2023/08/09 08:42:51;;;;;;;4.35;2.40;;;;;;;-148.88;100.00;-17125.47;5016398;28;20124;-76
2023/08/09 08:45:19;;;;;;;3.67;1.70;;;;;;;-148.88;100.00;-17125.47;5015415;28;20548;-75
2023/08/09 08:47:45;;;;;;;3.72;1.90;;;;;;;-148.88;96.20;-17125.47;5015289;28;20408;-74
2023/08/09 08:50:13;;;;;;;3.95;2.35;;;;;;;-148.88;100.00;-17125.47;5016631;28;20109;-74
2023/08/09 08:52:42;;;;;;;3.85;1.95;;;;;;;-148.88;96.32;-17125.47;5016903;28;20424;-75
2023/08/09 08:55:09;;;;;;;3.50;1.85;;;;;;;-148.88;96.91;-17125.47;5015380;28;20036;-75
2023/08/09 08:57:36;;;;;;;5.93;2.05;;;;;;;-148.88;96.06;-17125.47;5015157;28;20041;-75
2023/08/09 09:00:08;;;;;;;3.38;1.60;;;;;;;-148.88;95.02;-17125.47;5016450;28;20408;-75
2023/08/09 09:02:36;;;;;;;4.60;1.80;;;;;;;-148.88;95.59;-17125.47;5016409;28;20033;-75
2023/08/09 09:05:02;;;;;;;5.57;1.83;;;;;;;-148.88;95.59;-17125.47;5016247;28;20072;-74
2023/08/09 09:07:29;;;;;;;3.25;1.40;;;;;;;-148.88;90.31;-17125.47;5014642;28;20485;-75
2023/08/09 09:10:04;;;;;;;2.75;1.30;;;;;;;-148.88;86.99;-17125.47;5014959;28;20030;-75
2023/08/09 09:12:30;;;;;;;3.38;1.27;;;;;;;-148.88;89.24;-17125.47;5016223;28;20022;-74
2023/08/09 09:14:55;;;;;;;1.80;0.95;;;;;;;-148.88;86.79;-17125.47;5015812;28;20030;-75
2023/08/09 09:17:21;;;;;;;5.68;1.60;;;;;;;-148.88;86.23;-17125.47;5015726;28;20030;-75
2023/08/09 09:19:48;;;;;;;3.08;1.40;;;;;;;-148.88;86.91;-17125.47;5016099;28;20028;-75
2023/08/09 09:22:34;;;;;;;2.33;1.10;;;;;;;-148.88;81.68;-17125.47;5016062;28;20068;-76
2023/08/09 09:24:59;;;;;;;2.63;1.00;;;;;;;-148.88;82.89;-17125.47;5016384;28;20033;-75
2023/08/09 09:27:33;;;;;;;2.90;1.10;;;;;;;-148.88;83.45;-17125.47;5014637;28;20462;-75
2023/08/09 09:30:12;;;;;;;3.30;1.10;;;;;;;-148.88;81.83;-17125.47;5016094;28;20362;-74
2023/08/09 09:32:40;;;;;;;2.75;1.13;;;;;;;-148.88;83.25;-17125.47;5016250;28;20053;-74
2023/08/09 09:35:07;;;;;;;2.95;1.52;;;;;;;-148.88;86.50;-17125.47;5015809;28;20026;-75
2023/08/09 09:37:32;;;;;;;1.92;1.00;;;;;;;-148.88;83.33;-17125.47;5015777;28;20447;-75
2023/08/09 09:39:58;;;;;;;2.00;1.20;;;;;;;-148.88;77.58;-17125.47;5015804;28;20018;-76
2023/08/09 09:42:34;;;;;;;1.83;1.10;;;;;;;-148.88;79.19;-17125.47;5015000;28;20025;-77
2023/08/09 09:45:08;;;;;;;2.80;1.20;;;;;;;-148.88;81.78;-17125.47;5015728;28;20049;-77
2023/08/09 09:47:40;;;;;;;3.72;1.15;;;;;;;-148.88;75.89;-17125.47;5014234;28;20026;-78
2023/08/09 09:50:11;;;;;;;2.83;1.05;;;;;;;-148.88;76.47;-17125.47;5014171;28;20030;-77
2023/08/09 09:52:39;;;;;;;1.92;1.10;;;;;;;-148.88;76.47;-17125.47;5015599;28;20112;-78
2023/08/09 09:55:05;;;;;;;3.50;1.33;;;;;;;-148.88;74.91;-17125.47;5015562;28;20029;-77
2023/08/09 09:57:32;;;;;;;3.28;0.98;;;;;;;-148.88;71.67;-17125.47;5015457;28;20121;-77
2023/08/09 09:59:59;;;;;;;2.40;1.15;;;;;;;-148.88;69.41;-17125.47;5015384;28;20022;-77
2023/08/09 10:02:46;;;;;;;4.45;1.23;;;;;;;-148.88;71.42;-17125.47;5015292;28;20029;-77
2023/08/09 10:05:18;;;;;;;1.77;0.80;;;;;;;-148.88;71.00;-17125.47;5013909;28;20555;-77
2023/08/09 10:07:45;;;;;;;2.45;0.88;;;;;;;-148.88;67.96;-17125.47;5015534;28;20396;-78
2023/08/09 10:10:11;;;;;;;2.03;0.90;;;;;;;-148.88;63.91;-17125.47;5015132;28;20057;-77
2023/08/09 10:12:40;;;;;;;1.65;0.60;;;;;;;-148.88;66.64;-17125.47;5015165;28;20049;-77
2023/08/09 10:15:06;;;;;;;2.38;0.65;;;;;;;-148.88;64.58;-17125.47;5015607;28;20017;-77
2023/08/09 10:17:33;;;;;;;1.48;0.80;;;;;;;-148.88;66.74;-17125.47;5015027;28;20033;-77
2023/08/09 10:20:01;;;;;;;2.70;1.00;;;;;;;-148.88;63.94;-17125.47;5015039;28;20025;-77
2023/08/09 10:22:27;;;;;;;1.83;0.80;;;;;;;-148.88;62.77;-17125.47;5014968;28;20150;-77
2023/08/09 10:24:57;;;;;;;1.63;0.60;;;;;;;-148.88;57.29;-17125.47;5015170;28;20026;-77
2023/08/09 10:28:00;;;;;;;2.42;0.70;;;;;;;-148.88;55.28;-17125.47;5014829;28;20068;-77
2023/08/09 10:30:28;;;;;;;3.08;0.80;;;;;;;-148.88;58.67;-17125.47;5013561;28;20032;-77
2023/08/09 10:32:55;;;;;;;1.58;0.80;;;;;;;-148.88;58.60;-17125.47;5013546;28;20030;-77
2023/08/09 10:35:44;;;;;;;3.15;0.70;;;;;;;-148.88;55.88;-17125.47;5013566;28;20109;-77
2023/08/09 10:38:13;;;;;;;1.08;0.73;;;;;;;-148.88;55.59;-17125.47;5014841;28;20025;-77
2023/08/09 10:40:41;;;;;;;3.28;1.10;;;;;;;-148.88;55.46;-17125.47;5014703;28;20022;-77
2023/08/09 10:43:08;;;;;;;4.20;0.73;;;;;;;-148.88;55.57;-17125.47;5013280;28;20021;-77
2023/08/09 10:45:34;;;;;;;1.40;0.60;;;;;;;-148.88;56.13;-17125.47;5014566;28;20022;-77
2023/08/09 10:48:47;;;;;;;3.78;0.98;;;;;;;-148.88;57.05;-17125.47;5014529;28;20473;-77
2023/08/09 10:51:12;;;;;;;1.48;0.70;;;;;;;-148.88;57.36;-17125.47;4976479;28;20125;-77
2023/08/09 10:53:58;;;;;;;1.52;0.70;;;;;;;-148.88;55.38;-17125.47;5010667;28;20147;-77
2023/08/09 10:56:43;;;;;;;1.80;0.68;;;;;;;-148.88;55.28;-17125.47;5014428;28;20022;-77